<?xml version="1.0" encoding="utf-8"?>
<gpx xmlns:xsi="http://www.w3.org/2001/XMLSchema-instance" xmlns:xsd="http://www.w3.org/2001/XMLSchema" version="1.1" creator="Shapelink.com" xmlns="http://www.topografix.com/GPX/1/1" xmlns:gpxtpx="http://www.garmin.com/xmlschemas/TrackPointExtension/v1">
  <metadata>
    <name>Övrigt 1.60 km, 2019-04-14</name>
    <desc></desc>
    <author><name>Marian Moron</name></author> 
    <time>2019-04-14T21:25:27Z</time>
  </metadata>
  <trk>
    <name>Övrigt 1.60 km, 2019-04-14</name>
    <trkseg>
      <trkpt lat="51.229797542337" lon="4.458074028385">
        <ele>0</ele>
        <time>2019-04-14T21:25:27Z</time>
      </trkpt>
      <trkpt lat="51.22976711604" lon="4.458143011422">
        <ele>0</ele>
        <time>2019-04-14T21:25:33Z</time>
      </trkpt>
      <trkpt lat="51.229863759347" lon="4.458376614975">
        <ele>0</ele>
        <time>2019-04-14T21:25:53Z</time>
      </trkpt>
      <trkpt lat="51.229987057096" lon="4.458880618622">
        <ele>0</ele>
        <time>2019-04-14T21:26:24Z</time>
      </trkpt>
      <trkpt lat="51.230321830182" lon="4.458923701588">
        <ele>0</ele>
        <time>2019-04-14T21:27:47Z</time>
      </trkpt>
      <trkpt lat="51.230468345794" lon="4.458964437622">
        <ele>0</ele>
        <time>2019-04-14T21:28:06Z</time>
      </trkpt>
      <trkpt lat="51.230471028002" lon="4.459130231604">
        <ele>0</ele>
        <time>2019-04-14T21:28:38Z</time>
      </trkpt>
      <trkpt lat="51.230520565031" lon="4.459604228049">
        <ele>0</ele>
        <time>2019-04-14T21:29:36Z</time>
      </trkpt>
      <trkpt lat="51.230814350626" lon="4.459683101728">
        <ele>0</ele>
        <time>2019-04-14T21:30:15Z</time>
      </trkpt>
      <trkpt lat="51.231214083437" lon="4.45967036124">
        <ele>3.4</ele>
        <time>2019-04-14T21:31:16Z</time>
      </trkpt>
      <trkpt lat="51.231256495851" lon="4.459680922434">
        <ele>3.4</ele>
        <time>2019-04-14T21:31:21Z</time>
      </trkpt>
      <trkpt lat="51.231410890449" lon="4.45965359744">
        <ele>2.4</ele>
        <time>2019-04-14T21:31:33Z</time>
      </trkpt>
      <trkpt lat="51.231780280782" lon="4.459719982088">
        <ele>3.4</ele>
        <time>2019-04-14T21:31:55Z</time>
      </trkpt>
      <trkpt lat="51.231913804449" lon="4.460225326839">
        <ele>0</ele>
        <time>2019-04-14T21:32:22Z</time>
      </trkpt>
      <trkpt lat="51.231983625676" lon="4.460620281967">
        <ele>0</ele>
        <time>2019-04-14T21:32:49Z</time>
      </trkpt>
      <trkpt lat="51.232032659791" lon="4.460792865288">
        <ele>0</ele>
        <time>2019-04-14T21:33:08Z</time>
      </trkpt>
      <trkpt lat="51.232031653963" lon="4.460920353987">
        <ele>0</ele>
        <time>2019-04-14T21:33:17Z</time>
      </trkpt>
      <trkpt lat="51.232087980331" lon="4.461423938539">
        <ele>4.8</ele>
        <time>2019-04-14T21:33:57Z</time>
      </trkpt>
      <trkpt lat="51.232123854863" lon="4.461586966494">
        <ele>5.2</ele>
        <time>2019-04-14T21:34:10Z</time>
      </trkpt>
      <trkpt lat="51.232130895659" lon="4.461734236477">
        <ele>3.6</ele>
        <time>2019-04-14T21:34:17Z</time>
      </trkpt>
      <trkpt lat="51.232145480165" lon="4.461837166209">
        <ele>4.4</ele>
        <time>2019-04-14T21:34:30Z</time>
      </trkpt>
      <trkpt lat="51.232290403216" lon="4.462512831168">
        <ele>0</ele>
        <time>2019-04-14T21:35:13Z</time>
      </trkpt>
      <trkpt lat="51.232256121245" lon="4.462540072343">
        <ele>0</ele>
        <time>2019-04-14T21:35:17Z</time>
      </trkpt>
      <trkpt lat="51.232138020274" lon="4.462614838891">
        <ele>0.2</ele>
        <time>2019-04-14T21:35:36Z</time>
      </trkpt>
      <trkpt lat="51.232134080781" lon="4.462769065851">
        <ele>0</ele>
        <time>2019-04-14T21:35:44Z</time>
      </trkpt>
      <trkpt lat="51.232135673342" lon="4.462800749433">
        <ele>0</ele>
        <time>2019-04-14T21:35:46Z</time>
      </trkpt>
      <trkpt lat="51.232123351949" lon="4.46292170025">
        <ele>0</ele>
        <time>2019-04-14T21:36:07Z</time>
      </trkpt>
      <trkpt lat="51.231923946548" lon="4.463549085465">
        <ele>0</ele>
        <time>2019-04-14T21:36:35Z</time>
      </trkpt>
      <trkpt lat="51.231578779906" lon="4.463454118538">
        <ele>0</ele>
        <time>2019-04-14T21:36:59Z</time>
      </trkpt>
      <trkpt lat="51.231428240982" lon="4.463304920718">
        <ele>0</ele>
        <time>2019-04-14T21:37:19Z</time>
      </trkpt>
      <trkpt lat="51.231131270265" lon="4.46324859435">
        <ele>0</ele>
        <time>2019-04-14T21:37:42Z</time>
      </trkpt>
      <trkpt lat="51.230702452261" lon="4.463410029744">
        <ele>2.2</ele>
        <time>2019-04-14T21:38:10Z</time>
      </trkpt>
      <trkpt lat="51.230289895143" lon="4.463372311194">
        <ele>5.2</ele>
        <time>2019-04-14T21:38:41Z</time>
      </trkpt>
      <trkpt lat="51.230099123099" lon="4.462887250641">
        <ele>0</ele>
        <time>2019-04-14T21:39:14Z</time>
      </trkpt>
      <trkpt lat="51.22990625558" lon="4.462250142422">
        <ele>0</ele>
        <time>2019-04-14T21:39:47Z</time>
      </trkpt>
      <trkpt lat="51.22970425179" lon="4.461798860926">
        <ele>0</ele>
        <time>2019-04-14T21:40:13Z</time>
      </trkpt>
      <trkpt lat="51.229488669322" lon="4.461638012265">
        <ele>18.6</ele>
        <time>2019-04-14T21:40:50Z</time>
      </trkpt>
      <trkpt lat="51.229501242172" lon="4.461527287366">
        <ele>22.4</ele>
        <time>2019-04-14T21:40:54Z</time>
      </trkpt>
      <trkpt lat="51.229250623362" lon="4.461520581846">
        <ele>20.4</ele>
        <time>2019-04-14T21:41:38Z</time>
      </trkpt>
      <trkpt lat="51.228953904102" lon="4.461447659316">
        <ele>20.2</ele>
        <time>2019-04-14T21:42:22Z</time>
      </trkpt>
      <trkpt lat="51.228530534333" lon="4.461700038325">
        <ele>39.8</ele>
        <time>2019-04-14T21:42:55Z</time>
      </trkpt>
      <trkpt lat="51.22820892083" lon="4.461427375118">
        <ele>72.2</ele>
        <time>2019-04-14T21:43:39Z</time>
      </trkpt>
      <trkpt lat="51.228164748217" lon="4.461413125888">
        <ele>74.8</ele>
        <time>2019-04-14T21:43:42Z</time>
      </trkpt>
      <trkpt lat="51.228047485436" lon="4.46094692461">
        <ele>56.6</ele>
        <time>2019-04-14T21:44:00Z</time>
      </trkpt>
      <trkpt lat="51.228153432652" lon="4.46028726908">
        <ele>11.4</ele>
        <time>2019-04-14T21:44:45Z</time>
      </trkpt>
      <trkpt lat="51.228284274111" lon="4.459991890924">
        <ele>0</ele>
        <time>2019-04-14T21:45:09Z</time>
      </trkpt>
      <trkpt lat="51.228539083871" lon="4.459384622269">
        <ele>1.2</ele>
        <time>2019-04-14T21:45:52Z</time>
      </trkpt>
      <trkpt lat="51.228519973139" lon="4.459011711538">
        <ele>0</ele>
        <time>2019-04-14T21:46:09Z</time>
      </trkpt>
      <trkpt lat="51.228493402516" lon="4.458777521252">
        <ele>0</ele>
        <time>2019-04-14T21:46:23Z</time>
      </trkpt>
      <trkpt lat="51.228488373376" lon="4.45874499948">
        <ele>0</ele>
        <time>2019-04-14T21:46:25Z</time>
      </trkpt>
      <trkpt lat="51.228490217394" lon="4.458522543854">
        <ele>0</ele>
        <time>2019-04-14T21:46:37Z</time>
      </trkpt>
      <trkpt lat="51.22861963393" lon="4.458389187825">
        <ele>0</ele>
        <time>2019-04-14T21:46:43Z</time>
      </trkpt>
      <trkpt lat="51.228924902728" lon="4.458177125755">
        <ele>7.8</ele>
        <time>2019-04-14T21:47:46Z</time>
      </trkpt>
      <trkpt lat="51.229036633455" lon="4.458158182661">
        <ele>11.6</ele>
        <time>2019-04-14T21:47:54Z</time>
      </trkpt>
      <trkpt lat="51.22948213144" lon="4.45802080332">
        <ele>17.8</ele>
        <time>2019-04-14T21:48:30Z</time>
      </trkpt>
      <trkpt lat="51.229747921489" lon="4.458015606542">
        <ele>8.2</ele>
        <time>2019-04-14T21:49:02Z</time>
      </trkpt>
      <trkpt lat="51.229713639518" lon="4.4580308616">
        <ele>7.4</ele>
        <time>2019-04-14T21:49:05Z</time>
      </trkpt>
      <trkpt lat="51.22964557849" lon="4.458009571574">
        <ele>1</ele>
        <time>2019-04-14T21:49:22Z</time>
      </trkpt>
    </trkseg>
  </trk>
</gpx>